This is the latest recevied weather packets stored in our database for station/object PY5AL-13. If no packets are shown the sender has not sent any weather packets the latest 10 day(s).
| Time | Temp. | Humidity | Pressure | Rain* | Wind** | Luminosity | Snow |
|---|---|---|---|---|---|---|---|
| 1778021663 | 27.78° C | 64% | 1020.2 hPa | - | - | - | - |
| 1778020462 | 27.78° C | 64% | 1019.9 hPa | - | - | - | - |
| 1778019263 | 27.78° C | 64% | 1019.8 hPa | - | - | - | - |
| 1778018063 | 27.78° C | 64% | 1019.8 hPa | - | - | - | - |
| 1778016863 | 27.78° C | 64% | 1019.7 hPa | - | - | - | - |
| 1778015663 | 27.78° C | 63% | 1019.5 hPa | - | - | - | - |
| 1778014463 | 27.78° C | 62% | 1019.4 hPa | - | - | - | - |
| 1778013263 | 27.78° C | 62% | 1019.3 hPa | - | - | - | - |
| 1778012063 | 27.78° C | 62% | 1019.1 hPa | - | - | - | - |
| 1778010863 | 27.78° C | 62% | 1019.1 hPa | - | - | - | - |
| 1778009663 | 27.78° C | 61% | 1019 hPa | - | - | - | - |
| 1778008463 | 27.22° C | 62% | 1019.1 hPa | - | - | - | - |
| 1778007263 | 27.78° C | 61% | 1019.1 hPa | - | - | - | - |
| 1778006063 | 27.78° C | 61% | 1019.3 hPa | - | - | - | - |
| 1778004863 | 27.78° C | 60% | 1019.5 hPa | - | - | - | - |
| 1778003663 | 27.78° C | 60% | 1019.4 hPa | - | - | - | - |
| 1778002463 | 27.78° C | 60% | 1019.5 hPa | - | - | - | - |
| 1778001263 | 27.22° C | 59% | 1019.7 hPa | - | - | - | - |
| 1778000063 | 27.22° C | 59% | 1019.9 hPa | - | - | - | - |
| 1777998863 | 27.22° C | 60% | 1020 hPa | - | - | - | - |
| 1777997663 | 26.67° C | 61% | 1020.2 hPa | - | - | - | - |
| 1777996463 | 26.11° C | 63% | 1020.5 hPa | - | - | - | - |
| 1777995263 | 25.56° C | 65% | 1020.8 hPa | - | - | - | - |
| 1777994063 | 25° C | 67% | 1021.1 hPa | - | - | - | - |
| 1777992863 | 25° C | 67% | 1021.4 hPa | - | - | - | - |
* Rain since midnight (hover to see other rain measurements)
** Current wind speed in m/s (hover to see current wind gust speed)